Time;durP1;ratioP1;P1;durP2;ratioP2;P2;SDS_P1;SDS_P2;PMS_P1;PMS_P2;Temp;Humidity;BMP_temperature;BMP_pressure;BME280_temperature;BME280_humidity;BME280_pressure;Samples;Min_cycle;Max_cycle;Signal;HPM_P1;HPM_P2
2021/10/22 00:01:48;;;;;;;6.70;6.00;;;7.60;82.30;;;;;;5114615;28;20140;-77
2021/10/22 00:04:20;;;;;;;9.73;5.97;;;7.60;81.40;;;;;;5095699;28;20039;-77
2021/10/22 00:06:52;;;;;;;6.97;6.25;;;7.60;82.40;;;;;;5113767;28;20520;-76
2021/10/22 00:09:24;;;;;;;6.75;6.00;;;7.60;82.40;;;;;;5112611;28;20047;-77
2021/10/22 00:11:55;;;;;;;6.70;5.75;;;7.70;82.10;;;;;;5111458;28;20039;-76
2021/10/22 00:14:28;;;;;;;7.70;6.65;;;7.80;81.80;;;;;;5111966;28;20178;-77
2021/10/22 00:17:00;;;;;;;7.95;5.90;;;7.80;82.30;;;;;;5113317;28;20051;-76
2021/10/22 00:19:37;;;;;;;7.75;6.20;;;7.80;83.40;;;;;;5113588;28;20047;-76
2021/10/22 00:22:08;;;;;;;7.45;6.30;;;7.80;83.70;;;;;;5091790;28;20370;-76
2021/10/22 00:24:40;;;;;;;7.13;6.43;;;7.90;82.20;;;;;;5112347;28;20130;-76
2021/10/22 00:27:13;;;;;;;7.53;6.30;;;7.90;80.90;;;;;;5113242;28;20098;-76
2021/10/22 00:29:45;;;;;;;7.40;6.30;;;8.00;81.70;;;;;;5113934;28;20058;-75
2021/10/22 00:32:17;;;;;;;7.80;6.60;;;8.00;81.70;;;;;;5111179;28;20109;-76
2021/10/22 00:34:49;;;;;;;8.35;6.38;;;8.10;81.50;;;;;;5099999;29;20075;-75
2021/10/22 00:37:21;;;;;;;7.53;6.30;;;8.10;81.70;;;;;;5113223;28;20058;-76
2021/10/22 00:39:53;;;;;;;7.28;6.53;;;8.10;81.50;;;;;;5113877;28;20513;-75
2021/10/22 00:42:26;;;;;;;7.18;6.47;;;8.20;81.10;;;;;;5089914;28;20109;-76
2021/10/22 00:44:58;;;;;;;6.72;6.05;;;8.20;81.00;;;;;;5113937;28;20039;-76
2021/10/22 00:47:31;;;;;;;7.55;6.80;;;8.20;82.20;;;;;;5113871;28;20047;-76
2021/10/22 00:50:03;;;;;;;7.63;6.88;;;8.20;80.60;;;;;;5114042;28;20036;-72
2021/10/22 00:52:35;;;;;;;7.18;6.47;;;8.20;80.00;;;;;;5112276;28;20045;-76
2021/10/22 00:55:13;;;;;;;8.13;6.40;;;8.20;80.90;;;;;;5112695;28;20043;-75
2021/10/22 00:57:46;;;;;;;8.75;7.15;;;8.30;80.30;;;;;;5111974;28;20047;-76
2021/10/22 01:00:18;;;;;;;8.23;7.03;;;8.30;80.50;;;;;;5112577;28;20039;-75
2021/10/22 01:02:50;;;;;;;7.43;6.72;;;8.30;80.60;;;;;;5111087;28;20126;-76
2021/10/22 01:05:22;;;;;;;7.93;7.22;;;8.30;80.40;;;;;;5113211;28;20043;-76
2021/10/22 01:07:54;;;;;;;7.60;6.85;;;8.30;80.50;;;;;;5111763;28;20074;-74
2021/10/22 01:10:26;;;;;;;8.23;7.30;;;8.30;82.10;;;;;;5113474;28;20135;-74
2021/10/22 01:12:58;;;;;;;9.38;7.32;;;8.30;81.60;;;;;;5115311;28;20053;-74
2021/10/22 01:15:30;;;;;;;7.75;7.05;;;8.30;81.80;;;;;;5116658;28;20047;-74
2021/10/22 01:18:03;;;;;;;7.70;6.93;;;8.30;81.30;;;;;;5115511;28;20153;-77
2021/10/22 01:20:41;;;;;;;8.82;7.07;;;8.40;81.80;;;;;;5116594;28;20042;-77
2021/10/22 01:23:13;;;;;;;7.45;6.75;;;8.40;82.00;;;;;;5115741;28;20204;-76
2021/10/22 01:25:45;;;;;;;9.18;6.68;;;8.40;83.10;;;;;;5116891;28;20182;-77
2021/10/22 01:28:19;;;;;;;7.43;6.75;;;8.40;82.10;;;;;;5114351;28;20126;-75
2021/10/22 01:30:52;;;;;;;7.60;6.78;;;8.40;81.90;;;;;;5115741;28;20130;-75
2021/10/22 01:33:24;;;;;;;8.10;7.10;;;8.40;82.40;;;;;;5116617;28;20047;-76
2021/10/22 01:35:56;;;;;;;7.85;6.85;;;8.40;81.60;;;;;;5115183;28;20150;-77
2021/10/22 01:38:30;;;;;;;7.43;6.70;;;8.50;82.60;;;;;;5114954;28;20106;-76
2021/10/22 01:41:02;;;;;;;7.40;6.80;;;8.50;82.10;;;;;;5096687;28;20051;-76
2021/10/22 01:43:34;;;;;;;7.68;6.97;;;8.50;81.90;;;;;;5084066;28;20975;-76
2021/10/22 01:46:06;;;;;;;7.88;7.18;;;8.50;81.80;;;;;;5116539;28;20137;-76
2021/10/22 01:48:38;;;;;;;8.05;7.25;;;8.50;81.80;;;;;;5115033;28;20098;-75
2021/10/22 01:51:10;;;;;;;8.00;7.20;;;8.60;81.90;;;;;;5098026;29;20044;-75
2021/10/22 01:53:42;;;;;;;8.82;6.88;;;8.60;83.10;;;;;;5114895;28;20075;-76
2021/10/22 01:56:15;;;;;;;7.47;6.80;;;8.60;82.40;;;;;;5115148;28;20045;-75
2021/10/22 01:58:47;;;;;;;7.70;6.97;;;8.60;82.00;;;;;;5116050;28;20138;-74
2021/10/22 02:01:19;;;;;;;7.55;6.80;;;8.60;82.20;;;;;;5115330;28;20588;-76
2021/10/22 02:03:51;;;;;;;7.65;6.82;;;8.60;82.20;;;;;;5115324;28;20043;-75
2021/10/22 02:06:23;;;;;;;7.75;7.05;;;8.60;82.90;;;;;;5114972;28;20075;-75
2021/10/22 02:08:55;;;;;;;8.23;7.03;;;8.60;82.80;;;;;;5117192;28;20635;-75
2021/10/22 02:11:27;;;;;;;7.78;7.07;;;8.60;82.60;;;;;;5114346;28;20130;-75
2021/10/22 02:13:59;;;;;;;8.35;7.05;;;8.60;83.60;;;;;;5116987;28;20135;-75
2021/10/22 02:16:33;;;;;;;7.95;7.15;;;8.60;82.60;;;;;;5114244;28;20070;-76
2021/10/22 02:19:05;;;;;;;7.93;7.22;;;8.60;82.90;;;;;;5098944;28;20050;-75
2021/10/22 02:21:37;;;;;;;7.70;6.90;;;8.60;82.20;;;;;;5097223;28;20145;-75
2021/10/22 02:24:09;;;;;;;7.60;6.90;;;8.70;82.50;;;;;;5116328;28;20067;-76
2021/10/22 02:26:41;;;;;;;7.82;7.03;;;8.70;82.70;;;;;;5097958;28;20516;-75
2021/10/22 02:29:13;;;;;;;7.90;6.78;;;8.70;82.20;;;;;;5116505;28;20046;-75
2021/10/22 02:31:45;;;;;;;9.13;7.07;;;8.70;82.20;;;;;;5112402;28;20048;-76
2021/10/22 02:34:19;;;;;;;7.90;7.10;;;8.70;82.00;;;;;;5112640;28;20043;-76
2021/10/22 02:36:51;;;;;;;8.35;7.40;;;8.80;82.90;;;;;;5115719;28;20424;-76
2021/10/22 02:39:23;;;;;;;8.13;7.25;;;8.80;82.70;;;;;;5114714;28;20057;-76
2021/10/22 02:41:55;;;;;;;8.07;7.13;;;8.70;83.40;;;;;;5113913;28;20047;-75
2021/10/22 02:44:27;;;;;;;7.80;7.10;;;8.70;83.30;;;;;;5115766;28;20063;-76
2021/10/22 02:47:00;;;;;;;8.45;7.65;;;8.70;84.30;;;;;;5115141;28;20043;-76
2021/10/22 02:49:32;;;;;;;8.38;7.55;;;8.70;84.60;;;;;;5115685;28;20043;-76
2021/10/22 02:52:04;;;;;;;8.07;7.28;;;8.70;85.50;;;;;;5095092;28;20133;-76
2021/10/22 02:54:36;;;;;;;8.00;7.30;;;8.70;85.30;;;;;;5116215;28;20661;-76
2021/10/22 02:57:08;;;;;;;8.00;7.30;;;8.70;85.40;;;;;;5114416;28;20125;-76
2021/10/22 02:59:40;;;;;;;8.05;7.28;;;8.70;86.30;;;;;;5115878;28;20050;-76
2021/10/22 03:02:14;;;;;;;8.40;7.18;;;8.60;86.10;;;;;;5112869;28;20849;-76
2021/10/22 03:04:48;;;;;;;7.90;7.20;;;8.60;86.50;;;;;;5092336;28;20036;-76
2021/10/22 03:07:19;;;;;;;7.97;7.18;;;8.70;86.70;;;;;;5112817;28;20045;-76
2021/10/22 03:09:51;;;;;;;8.10;7.30;;;8.60;86.60;;;;;;5115333;28;20043;-76
2021/10/22 03:12:23;;;;;;;7.63;6.82;;;8.70;86.10;;;;;;5113062;28;20036;-75
2021/10/22 03:14:55;;;;;;;9.65;7.20;;;8.60;86.50;;;;;;5114954;28;20130;-76
2021/10/22 03:17:31;;;;;;;8.23;6.80;;;8.60;87.80;;;;;;5096870;28;20512;-77
2021/10/22 03:20:04;;;;;;;7.72;6.70;;;8.60;87.00;;;;;;5113272;28;20043;-75
2021/10/22 03:22:36;;;;;;;8.73;7.47;;;8.60;87.30;;;;;;5113152;28;20421;-75
2021/10/22 03:25:08;;;;;;;7.80;7.00;;;8.50;87.40;;;;;;5112884;28;20046;-77
2021/10/22 03:27:42;;;;;;;7.70;6.97;;;8.50;87.30;;;;;;5114558;28;20043;-75
2021/10/22 03:30:14;;;;;;;7.47;6.78;;;8.50;87.50;;;;;;5114150;28;20039;-76
2021/10/22 03:32:46;;;;;;;7.95;7.15;;;8.50;87.80;;;;;;5090962;28;20510;-75
2021/10/22 03:35:18;;;;;;;8.77;7.97;;;8.50;88.10;;;;;;5113828;28;20050;-76
2021/10/22 03:37:50;;;;;;;8.55;7.38;;;8.50;87.90;;;;;;5097866;28;20075;-77
2021/10/22 03:40:23;;;;;;;7.95;7.25;;;8.40;88.10;;;;;;5114767;28;20122;-76
2021/10/22 03:42:56;;;;;;;7.70;7.00;;;8.40;87.60;;;;;;5113969;28;20057;-76
2021/10/22 03:45:28;;;;;;;8.23;7.32;;;8.40;88.20;;;;;;5113677;28;20133;-75
2021/10/22 03:48:00;;;;;;;7.47;6.65;;;8.40;88.60;;;;;;5114378;28;20660;-75
2021/10/22 03:50:33;;;;;;;7.78;7.00;;;8.40;88.30;;;;;;5113086;28;20134;-75
2021/10/22 03:53:07;;;;;;;7.90;7.07;;;8.50;87.90;;;;;;5096306;29;20186;-75
2021/10/22 03:55:39;;;;;;;7.78;7.03;;;8.50;88.10;;;;;;5095595;28;20046;-75
2021/10/22 03:58:13;;;;;;;7.57;6.88;;;8.50;88.30;;;;;;5112856;28;20035;-75
2021/10/22 04:00:47;;;;;;;9.00;8.15;;;8.50;88.30;;;;;;5111562;28;20051;-75
2021/10/22 04:03:19;;;;;;;8.73;7.72;;;8.40;88.40;;;;;;5113952;28;20043;-75
2021/10/22 04:05:50;;;;;;;9.52;7.78;;;8.40;89.20;;;;;;5112475;28;20077;-75
2021/10/22 04:08:22;;;;;;;7.68;7.00;;;8.40;88.50;;;;;;5114651;28;20134;-76
2021/10/22 04:10:54;;;;;;;7.60;6.90;;;8.40;88.40;;;;;;5112304;28;20138;-74
2021/10/22 04:13:26;;;;;;;8.00;7.20;;;8.40;88.60;;;;;;5114253;28;20144;-75
2021/10/22 04:16:00;;;;;;;9.73;7.53;;;8.50;88.40;;;;;;5113422;28;20063;-76
2021/10/22 04:18:32;;;;;;;8.05;7.25;;;8.40;88.30;;;;;;5114514;28;20122;-75
2021/10/22 04:21:04;;;;;;;8.45;7.32;;;8.50;88.20;;;;;;5110300;28;20055;-74
2021/10/22 04:23:36;;;;;;;8.98;7.15;;;8.40;87.90;;;;;;5096995;28;20169;-75
2021/10/22 04:26:08;;;;;;;8.15;7.35;;;8.40;88.90;;;;;;5110915;28;20579;-75
2021/10/22 04:28:40;;;;;;;8.73;7.03;;;8.50;88.70;;;;;;5091097;28;20150;-77
2021/10/22 04:31:12;;;;;;;8.23;7.30;;;8.50;88.60;;;;;;5113403;28;20141;-77
2021/10/22 04:33:44;;;;;;;8.43;7.43;;;8.50;88.60;;;;;;5113868;28;20047;-76
2021/10/22 04:36:17;;;;;;;10.43;7.50;;;8.40;88.60;;;;;;5097111;28;20047;-78
2021/10/22 04:41:39;;;;;;;;;;;8.40;88.80;;;;;;5113881;28;20442;-77
2021/10/22 04:44:11;;;;;;;7.82;7.05;;;8.40;88.70;;;;;;5090641;28;20025;-77
2021/10/22 04:46:43;;;;;;;7.82;7.03;;;8.50;88.80;;;;;;5114259;28;20077;-77
2021/10/22 04:49:16;;;;;;;8.13;7.00;;;8.50;88.70;;;;;;5117801;28;20161;-78
2021/10/22 04:51:48;;;;;;;9.48;7.70;;;8.50;88.40;;;;;;5113123;28;20047;-77
2021/10/22 04:54:19;;;;;;;8.75;7.05;;;8.50;88.40;;;;;;5115345;28;20708;-75
2021/10/22 04:56:52;;;;;;;7.88;7.10;;;8.50;87.90;;;;;;5084170;28;20134;-76
2021/10/22 04:59:24;;;;;;;7.90;7.20;;;8.50;87.40;;;;;;5115527;28;20071;-78
2021/10/22 05:01:56;;;;;;;7.80;7.00;;;8.50;86.90;;;;;;5098778;28;20051;-76
2021/10/22 05:04:28;;;;;;;7.25;6.55;;;8.50;87.40;;;;;;5115943;28;20417;-76
2021/10/22 05:07:00;;;;;;;7.90;7.10;;;8.60;87.10;;;;;;5116367;28;20253;-75
2021/10/22 05:09:32;;;;;;;7.35;6.47;;;8.60;87.80;;;;;;5115455;28;20528;-73
2021/10/22 05:12:06;;;;;;;7.22;6.50;;;8.60;87.50;;;;;;5113438;28;20057;-72
2021/10/22 05:14:38;;;;;;;8.18;6.95;;;8.60;87.10;;;;;;5114632;28;20051;-71
2021/10/22 05:17:10;;;;;;;6.82;6.22;;;8.60;87.00;;;;;;5114900;28;20576;-72
2021/10/22 05:19:42;;;;;;;7.28;6.53;;;8.60;86.60;;;;;;5115394;28;20154;-73
2021/10/22 05:22:14;;;;;;;7.57;6.20;;;8.50;87.00;;;;;;5115047;28;20050;-72
2021/10/22 05:24:47;;;;;;;6.80;6.20;;;8.50;86.90;;;;;;5116940;28;20079;-73
2021/10/22 05:27:19;;;;;;;7.72;6.50;;;8.50;87.00;;;;;;5114408;28;20039;-72
2021/10/22 05:29:51;;;;;;;7.32;6.63;;;8.50;87.20;;;;;;5093916;28;20047;-73
2021/10/22 05:32:23;;;;;;;8.48;6.85;;;8.50;87.00;;;;;;5113028;28;20524;-74
2021/10/22 05:34:54;;;;;;;7.20;6.50;;;8.50;87.00;;;;;;5114085;28;20051;-73
2021/10/22 05:37:26;;;;;;;7.78;6.95;;;8.40;87.10;;;;;;5114548;28;20051;-74
2021/10/22 05:39:58;;;;;;;7.90;7.10;;;8.40;87.30;;;;;;5115752;28;20043;-74
2021/10/22 05:42:31;;;;;;;8.10;7.30;;;8.30;87.70;;;;;;5111404;28;20055;-74
2021/10/22 05:45:05;;;;;;;8.07;6.75;;;8.30;88.00;;;;;;5113130;28;20513;-75
2021/10/22 05:47:37;;;;;;;8.18;7.38;;;8.20;88.00;;;;;;5093916;28;20167;-73
2021/10/22 05:50:10;;;;;;;8.02;7.22;;;8.20;87.90;;;;;;5111896;28;20121;-73
2021/10/22 05:52:42;;;;;;;8.98;7.38;;;8.20;87.90;;;;;;5092427;28;20058;-73
2021/10/22 05:55:14;;;;;;;7.70;6.80;;;8.20;88.20;;;;;;5110992;28;20149;-73
2021/10/22 05:57:46;;;;;;;7.03;6.32;;;8.20;87.50;;;;;;5114149;28;20917;-73
2021/10/22 06:00:18;;;;;;;8.38;7.38;;;8.20;87.90;;;;;;5111353;28;20948;-72
2021/10/22 06:02:55;;;;;;;7.97;6.72;;;8.20;87.40;;;;;;5111413;28;20054;-73
2021/10/22 06:05:27;;;;;;;7.10;6.40;;;8.20;87.20;;;;;;5105987;28;20287;-73
2021/10/22 06:07:59;;;;;;;7.65;6.40;;;8.20;87.40;;;;;;5111626;28;20663;-74
2021/10/22 06:10:31;;;;;;;7.20;6.50;;;8.20;87.40;;;;;;5112931;28;20109;-74
2021/10/22 06:13:03;;;;;;;7.90;7.10;;;8.20;87.80;;;;;;5113171;28;20105;-73
2021/10/22 06:15:35;;;;;;;7.50;6.75;;;8.20;88.10;;;;;;5113394;28;20137;-72
2021/10/22 06:18:08;;;;;;;8.32;7.15;;;8.20;88.50;;;;;;5115177;28;20134;-73
2021/10/22 06:26:08;;;;;;;7.97;6.65;;;8.20;88.90;;;;;;5113011;28;20054;-74
2021/10/22 06:28:40;;;;;;;7.63;6.82;;;8.30;88.50;;;;;;5114747;28;20158;-74
2021/10/22 06:31:13;;;;;;;7.82;7.13;;;8.30;88.10;;;;;;5072883;29;20047;-75
2021/10/22 06:33:45;;;;;;;8.32;6.97;;;8.30;88.40;;;;;;5091888;28;20054;-73
2021/10/22 06:36:18;;;;;;;7.88;7.07;;;8.30;88.20;;;;;;5113140;28;20191;-74
2021/10/22 06:38:50;;;;;;;7.85;7.05;;;8.30;87.80;;;;;;5112942;28;20655;-74
2021/10/22 06:41:23;;;;;;;8.85;7.95;;;8.30;87.50;;;;;;5089525;28;20050;-72
2021/10/22 06:43:55;;;;;;;8.52;7.47;;;8.30;87.90;;;;;;5114646;28;20146;-74
2021/10/22 06:46:27;;;;;;;8.05;7.15;;;8.30;88.10;;;;;;5113911;28;20069;-73
2021/10/22 06:48:59;;;;;;;7.60;6.90;;;8.30;88.20;;;;;;5115076;28;20070;-74
2021/10/22 06:51:31;;;;;;;7.32;6.63;;;8.30;87.90;;;;;;5112468;28;20790;-74
2021/10/22 06:54:03;;;;;;;7.68;6.88;;;8.40;87.80;;;;;;5115261;28;20133;-75
2021/10/22 06:56:35;;;;;;;8.27;7.32;;;8.40;87.90;;;;;;5113740;28;20047;-74
2021/10/22 06:59:07;;;;;;;7.22;6.47;;;8.40;88.10;;;;;;5115200;28;20530;-76
2021/10/22 07:01:39;;;;;;;7.53;6.80;;;8.40;88.10;;;;;;5111453;28;20145;-74
2021/10/22 07:04:12;;;;;;;7.60;6.90;;;8.40;87.60;;;;;;5077060;28;1119008;-74
2021/10/22 07:09:34;;;;;;;;;;;8.50;87.20;;;;;;5114584;28;20075;-73
2021/10/22 07:12:06;;;;;;;8.00;7.20;;;8.70;86.70;;;;;;5113958;28;19953;-72
2021/10/22 07:14:47;;;;;;;7.82;7.05;;;8.80;86.30;;;;;;5115194;28;20047;-73
2021/10/22 07:17:19;;;;;;;7.53;6.80;;;8.90;85.90;;;;;;5114637;28;20142;-73
2021/10/22 07:19:52;;;;;;;8.75;6.93;;;8.90;86.30;;;;;;5114138;28;20928;-73
2021/10/22 07:22:30;;;;;;;7.63;6.93;;;9.00;85.50;;;;;;5110444;28;20043;-73
2021/10/22 07:25:04;;;;;;;8.25;7.50;;;9.00;86.30;;;;;;5115638;28;20047;-73
2021/10/22 07:27:36;;;;;;;7.88;7.07;;;9.10;86.30;;;;;;5113823;28;20569;-73
2021/10/22 07:30:09;;;;;;;10.35;7.45;;;9.20;86.30;;;;;;5115322;28;20050;-73
2021/10/22 07:32:41;;;;;;;8.60;7.70;;;9.20;86.20;;;;;;5113471;28;20137;-73
2021/10/22 07:35:14;;;;;;;7.95;7.15;;;9.20;86.20;;;;;;5113354;28;20043;-72
2021/10/22 07:37:46;;;;;;;10.20;7.55;;;9.20;86.60;;;;;;5114302;28;20117;-73
2021/10/22 07:40:18;;;;;;;9.07;8.23;;;9.20;86.70;;;;;;5113531;28;20051;-73
2021/10/22 07:42:51;;;;;;;9.02;8.23;;;9.30;86.10;;;;;;5113999;28;20468;-74
2021/10/22 07:45:23;;;;;;;8.25;7.45;;;9.30;85.70;;;;;;5114103;28;20043;-73
2021/10/22 07:48:00;;;;;;;9.05;7.45;;;9.30;86.40;;;;;;5113886;28;20093;-73
2021/10/22 07:50:32;;;;;;;8.60;7.70;;;9.40;86.40;;;;;;5113703;28;20047;-74
2021/10/22 07:53:05;;;;;;;8.50;7.60;;;9.30;87.80;;;;;;5113504;28;20051;-73
2021/10/22 07:55:37;;;;;;;8.48;7.57;;;9.30;87.30;;;;;;5113302;28;20162;-74
2021/10/22 07:58:09;;;;;;;8.68;7.80;;;9.40;86.70;;;;;;5114909;28;20429;-73
2021/10/22 08:00:41;;;;;;;8.85;7.70;;;9.40;86.20;;;;;;5113627;28;20046;-73
2021/10/22 08:03:13;;;;;;;8.50;7.70;;;9.50;87.30;;;;;;5114882;28;20126;-73
2021/10/22 08:05:45;;;;;;;8.80;7.90;;;9.50;86.70;;;;;;5112870;28;20041;-73
2021/10/22 08:08:17;;;;;;;8.50;7.70;;;9.60;87.00;;;;;;5114392;28;20053;-75
2021/10/22 08:10:49;;;;;;;8.60;7.70;;;9.70;86.20;;;;;;5112704;28;20201;-73
2021/10/22 08:13:22;;;;;;;9.35;8.45;;;9.70;86.40;;;;;;5113871;28;20158;-73
2021/10/22 08:15:54;;;;;;;8.48;7.68;;;9.70;86.60;;;;;;5111209;28;20055;-73
2021/10/22 08:18:26;;;;;;;10.20;7.60;;;9.80;86.10;;;;;;5097292;29;20035;-73
2021/10/22 08:21:03;;;;;;;9.15;8.20;;;9.80;85.20;;;;;;5112007;28;20078;-73
2021/10/22 08:23:34;;;;;;;8.60;7.78;;;9.90;84.40;;;;;;5114105;28;20174;-74
2021/10/22 08:26:06;;;;;;;8.57;7.78;;;10.10;82.50;;;;;;5111113;28;20060;-73
2021/10/22 08:28:38;;;;;;;8.60;7.80;;;10.20;82.40;;;;;;5096674;28;20130;-73
2021/10/22 08:31:11;;;;;;;8.80;8.00;;;10.20;82.50;;;;;;5111395;28;20746;-73
2021/10/22 08:33:43;;;;;;;9.32;7.88;;;10.30;81.70;;;;;;5113288;28;20043;-73
2021/10/22 08:36:15;;;;;;;8.70;7.90;;;10.30;78.60;;;;;;5112953;28;20080;-73
2021/10/22 08:38:47;;;;;;;8.80;8.00;;;10.50;80.20;;;;;;5112837;28;20071;-74
2021/10/22 08:41:22;;;;;;;8.88;7.95;;;10.60;80.90;;;;;;5111596;28;20047;-73
2021/10/22 08:43:56;;;;;;;8.75;7.95;;;10.70;82.30;;;;;;5113085;28;20059;-74
2021/10/22 08:46:28;;;;;;;9.50;8.60;;;10.80;81.10;;;;;;5113523;28;20044;-73
2021/10/22 08:49:01;;;;;;;9.73;8.45;;;10.90;82.50;;;;;;5095607;28;20070;-74
2021/10/22 08:51:33;;;;;;;8.90;8.07;;;11.00;78.20;;;;;;5112062;28;20596;-73
2021/10/22 08:54:05;;;;;;;9.25;8.48;;;11.00;77.30;;;;;;5113922;28;20106;-74
2021/10/22 08:56:40;;;;;;;8.93;8.05;;;11.00;77.20;;;;;;5112729;28;20398;-73
2021/10/22 08:59:12;;;;;;;9.98;8.45;;;11.00;80.10;;;;;;5112887;28;20054;-73
2021/10/22 09:02:21;;;;;;;8.90;8.10;;;11.10;80.20;;;;;;5113343;28;20864;-73
2021/10/22 09:05:00;;;;;;;9.65;8.77;;;11.10;80.80;;;;;;5091406;28;20425;-73
2021/10/22 09:07:42;;;;;;;8.65;7.95;;;11.00;81.30;;;;;;5114379;28;20115;-73
2021/10/22 09:10:26;;;;;;;9.13;8.23;;;11.00;81.20;;;;;;5112552;28;20102;-73
2021/10/22 09:13:06;;;;;;;8.75;7.95;;;11.00;81.40;;;;;;5111632;28;20118;-74
2021/10/22 09:15:41;;;;;;;8.85;8.05;;;10.90;81.80;;;;;;5112866;28;20138;-72
2021/10/22 09:18:19;;;;;;;8.40;7.60;;;10.80;81.70;;;;;;5113746;28;20580;-73
2021/10/22 09:20:51;;;;;;;8.13;7.45;;;10.80;81.00;;;;;;5112213;28;20130;-73
2021/10/22 09:23:30;;;;;;;8.30;7.60;;;10.70;81.80;;;;;;5096411;29;20039;-73
2021/10/22 09:26:18;;;;;;;8.40;7.70;;;10.70;81.60;;;;;;5113694;28;20039;-74
2021/10/22 09:28:51;;;;;;;7.80;7.10;;;10.60;81.70;;;;;;5113203;28;20409;-72
2021/10/22 09:31:24;;;;;;;8.40;7.68;;;10.60;81.90;;;;;;5112844;28;20049;-73
2021/10/22 09:34:02;;;;;;;7.97;7.20;;;10.50;82.00;;;;;;5116484;28;20126;-74
2021/10/22 09:36:38;;;;;;;8.00;7.30;;;10.40;82.10;;;;;;5117895;28;20138;-73
2021/10/22 09:39:15;;;;;;;8.07;7.47;;;10.40;82.60;;;;;;5116872;28;20639;-73
2021/10/22 09:41:58;;;;;;;7.82;7.22;;;10.30;82.80;;;;;;5099269;28;20126;-73
2021/10/22 09:44:37;;;;;;;8.70;8.00;;;10.40;82.80;;;;;;5088625;29;20106;-73
2021/10/22 09:47:09;;;;;;;8.07;7.40;;;10.30;82.80;;;;;;5114643;28;20125;-73
2021/10/22 09:49:43;;;;;;;8.15;7.45;;;10.20;81.90;;;;;;5116277;28;20457;-73
2021/10/22 09:52:24;;;;;;;8.27;7.57;;;10.10;82.60;;;;;;5098628;29;20420;-73
2021/10/22 09:55:15;;;;;;;8.15;7.45;;;10.00;82.40;;;;;;5116496;28;20039;-73
2021/10/22 09:58:06;;;;;;;8.10;7.43;;;9.90;82.30;;;;;;5117233;28;20146;-73
2021/10/22 10:00:38;;;;;;;8.00;7.40;;;9.80;82.50;;;;;;5115169;28;20047;-73
2021/10/22 10:03:10;;;;;;;8.05;7.35;;;9.90;82.70;;;;;;5092227;29;20050;-73
2021/10/22 10:05:44;;;;;;;8.02;7.32;;;9.80;83.00;;;;;;5094019;28;20457;-74
2021/10/22 10:08:16;;;;;;;8.05;7.35;;;9.70;82.80;;;;;;5095424;29;20043;-73
2021/10/22 10:10:48;;;;;;;7.90;7.20;;;9.80;83.70;;;;;;5091634;28;20040;-74
2021/10/22 10:13:20;;;;;;;7.47;6.85;;;9.70;83.90;;;;;;5112170;28;20147;-73
2021/10/22 10:15:52;;;;;;;7.78;7.10;;;9.60;83.80;;;;;;5114820;28;20532;-72
2021/10/22 10:18:26;;;;;;;7.47;6.88;;;9.60;83.80;;;;;;5116589;28;20066;-73
2021/10/22 10:21:01;;;;;;;7.85;7.25;;;9.50;83.40;;;;;;5113052;28;20130;-73
2021/10/22 10:23:38;;;;;;;7.70;7.00;;;9.50;84.50;;;;;;5113148;28;20071;-74
2021/10/22 10:26:23;;;;;;;7.93;7.32;;;9.50;84.50;;;;;;5113990;28;20137;-73
2021/10/22 10:28:59;;;;;;;7.80;7.20;;;9.40;84.30;;;;;;5115996;28;20629;-72
2021/10/22 10:31:46;;;;;;;7.80;7.10;;;9.40;84.50;;;;;;5115075;28;20050;-72
2021/10/22 10:34:27;;;;;;;7.47;6.82;;;9.30;84.40;;;;;;5111319;28;20069;-73
2021/10/22 10:37:02;;;;;;;8.20;7.40;;;9.30;84.30;;;;;;5115473;28;20749;-73
2021/10/22 10:39:44;;;;;;;7.30;6.70;;;9.20;84.40;;;;;;5114357;28;20126;-72
2021/10/22 10:42:23;;;;;;;7.50;6.90;;;9.20;84.10;;;;;;5112979;28;20043;-72
2021/10/22 10:44:57;;;;;;;7.70;7.10;;;9.30;84.80;;;;;;5112359;28;20101;-72
2021/10/22 10:47:43;;;;;;;7.88;7.18;;;9.30;85.00;;;;;;5115603;28;20138;-73
2021/10/22 10:50:39;;;;;;;7.35;6.75;;;9.20;84.90;;;;;;5094544;28;20047;-72
2021/10/22 10:53:15;;;;;;;7.30;6.70;;;9.20;85.20;;;;;;5114462;28;20625;-72
2021/10/22 10:55:51;;;;;;;7.60;6.93;;;9.30;85.40;;;;;;5114405;28;20071;-74
2021/10/22 10:58:24;;;;;;;7.63;7.03;;;9.40;85.60;;;;;;5096453;28;20423;-73
2021/10/22 11:01:07;;;;;;;7.53;6.93;;;9.40;84.60;;;;;;5114875;28;20054;-72
2021/10/22 11:03:46;;;;;;;8.07;7.38;;;9.30;84.70;;;;;;5112166;28;20130;-72
2021/10/22 11:06:52;;;;;;;7.47;6.88;;;9.30;84.40;;;;;;5114483;28;20047;-73
2021/10/22 11:09:27;;;;;;;8.10;7.32;;;9.30;84.50;;;;;;5110112;28;20167;-73
2021/10/22 11:12:03;;;;;;;7.55;6.95;;;9.40;84.70;;;;;;5110441;28;20043;-73
2021/10/22 11:14:43;;;;;;;7.55;6.90;;;9.40;84.90;;;;;;5081856;28;20040;-72
2021/10/22 11:17:26;;;;;;;7.63;7.03;;;9.40;84.30;;;;;;5114844;28;20517;-73
2021/10/22 11:20:00;;;;;;;8.15;7.35;;;9.50;84.30;;;;;;5114786;28;20126;-73
2021/10/22 11:22:32;;;;;;;7.40;6.80;;;9.60;84.60;;;;;;5112894;28;20551;-74
2021/10/22 11:25:08;;;;;;;7.95;7.25;;;9.90;84.00;;;;;;5092900;28;20657;-74
2021/10/22 11:27:40;;;;;;;8.57;7.88;;;10.00;84.30;;;;;;5090339;28;20569;-73
2021/10/22 11:30:12;;;;;;;8.57;7.88;;;10.00;83.30;;;;;;5112372;28;20066;-72
2021/10/22 11:32:46;;;;;;;9.82;8.90;;;10.00;83.10;;;;;;5105019;28;20043;-73
2021/10/22 11:35:28;;;;;;;8.00;7.30;;;9.90;82.70;;;;;;5107666;28;20523;-74
2021/10/22 11:38:04;;;;;;;9.48;8.57;;;9.90;82.80;;;;;;5113912;28;20777;-74
2021/10/22 11:40:38;;;;;;;9.25;8.45;;;9.90;83.60;;;;;;5093545;28;20058;-73
2021/10/22 11:43:10;;;;;;;11.25;10.05;;;9.90;82.50;;;;;;5090455;28;20165;-72
2021/10/22 11:45:43;;;;;;;9.82;8.93;;;10.00;81.40;;;;;;5112715;28;20079;-74
2021/10/22 11:48:32;;;;;;;9.65;8.75;;;10.00;81.80;;;;;;5113943;28;20035;-73
2021/10/22 11:51:11;;;;;;;10.73;9.73;;;10.00;81.40;;;;;;5113971;28;20047;-72
2021/10/22 11:53:44;;;;;;;9.43;8.52;;;10.10;82.10;;;;;;5113912;28;20574;-72
2021/10/22 11:56:17;;;;;;;9.93;9.02;;;10.10;81.50;;;;;;5113693;28;20141;-73
2021/10/22 11:58:49;;;;;;;9.27;8.48;;;10.10;81.70;;;;;;5097081;28;20412;-73
2021/10/22 12:01:22;;;;;;;9.30;8.50;;;10.10;81.80;;;;;;5113485;28;20090;-73
2021/10/22 12:03:55;;;;;;;8.43;7.72;;;10.30;82.00;;;;;;5109355;28;20118;-73
2021/10/22 12:06:27;;;;;;;9.02;8.23;;;10.20;80.10;;;;;;5113374;28;20050;-72
2021/10/22 12:09:01;;;;;;;8.13;7.43;;;10.30;81.60;;;;;;5113352;28;20070;-73
2021/10/22 12:11:33;;;;;;;8.15;7.55;;;10.30;80.30;;;;;;5110817;28;20039;-72
2021/10/22 12:14:13;;;;;;;8.43;7.65;;;10.30;79.90;;;;;;5112118;28;20057;-71
2021/10/22 12:16:46;;;;;;;8.38;7.70;;;10.30;81.00;;;;;;5112670;28;20063;-74
2021/10/22 12:19:20;;;;;;;9.20;8.40;;;10.40;77.30;;;;;;5107431;28;20071;-73
2021/10/22 12:21:53;;;;;;;8.57;7.88;;;10.60;79.10;;;;;;5098237;28;20051;-73
2021/10/22 12:24:37;;;;;;;8.40;7.70;;;10.70;78.90;;;;;;5110848;28;20142;-73
2021/10/22 12:27:10;;;;;;;8.15;7.55;;;10.70;76.50;;;;;;5094479;29;20424;-73
2021/10/22 12:29:54;;;;;;;8.40;7.80;;;10.80;73.80;;;;;;5096021;29;20130;-74
2021/10/22 12:32:44;;;;;;;8.50;7.90;;;10.90;76.20;;;;;;5110600;28;20096;-72
2021/10/22 12:35:20;;;;;;;8.30;7.70;;;10.90;77.20;;;;;;5111592;28;20700;-71
2021/10/22 12:38:11;;;;;;;8.68;7.97;;;11.00;78.20;;;;;;5112373;28;20798;-73
2021/10/22 12:40:52;;;;;;;9.10;8.40;;;11.30;77.10;;;;;;5113852;28;20047;-73
2021/10/22 12:43:34;;;;;;;9.32;8.52;;;11.30;75.70;;;;;;5111103;28;20083;-74
2021/10/22 12:46:16;;;;;;;9.10;8.40;;;11.40;73.80;;;;;;5113555;28;20061;-76
2021/10/22 12:48:53;;;;;;;9.07;8.18;;;11.40;72.60;;;;;;5080621;28;20063;-74
2021/10/22 12:51:26;;;;;;;9.45;8.27;;;11.30;73.70;;;;;;5114330;28;20053;-75
2021/10/22 12:54:00;;;;;;;8.68;7.97;;;11.30;74.10;;;;;;5112158;28;20053;-75
2021/10/22 12:56:34;;;;;;;8.98;8.27;;;11.30;73.80;;;;;;5112699;28;20130;-75
2021/10/22 12:59:09;;;;;;;8.88;8.18;;;11.40;73.40;;;;;;5112280;28;20125;-75
2021/10/22 13:01:42;;;;;;;9.00;8.30;;;11.30;72.00;;;;;;5111264;28;20493;-74
2021/10/22 13:04:22;;;;;;;8.90;8.20;;;11.30;74.30;;;;;;5112514;28;20040;-76
2021/10/22 13:07:23;;;;;;;;;;;11.30;72.30;;;;;;5097145;28;20086;-76
2021/10/22 13:10:20;;;;;;;8.88;8.18;;;11.30;73.00;;;;;;5100725;28;19941;-75
2021/10/22 13:13:03;;;;;;;8.77;8.07;;;11.40;72.70;;;;;;5099733;28;20518;-75
2021/10/22 13:21:04;;;;;;;8.40;7.80;;;11.30;72.10;;;;;;5113193;28;20130;-75
2021/10/22 13:23:36;;;;;;;8.88;8.18;;;11.20;71.50;;;;;;5093747;28;20051;-76
2021/10/22 13:26:08;;;;;;;8.93;8.23;;;11.20;72.70;;;;;;5114337;28;20505;-75
2021/10/22 13:28:40;;;;;;;9.10;8.40;;;11.20;71.90;;;;;;5116763;28;20050;-76
2021/10/22 13:31:12;;;;;;;8.43;7.82;;;11.20;72.50;;;;;;5113432;28;20071;-76
2021/10/22 13:33:44;;;;;;;8.93;8.23;;;11.30;72.40;;;;;;5115883;28;20561;-75
2021/10/22 13:36:16;;;;;;;9.00;8.30;;;11.30;72.50;;;;;;5097055;29;20791;-76
2021/10/22 13:38:48;;;;;;;8.70;8.00;;;11.40;73.20;;;;;;5093392;28;20755;-76
2021/10/22 13:41:22;;;;;;;8.38;7.68;;;11.50;72.30;;;;;;5114096;28;20355;-74
2021/10/22 13:43:54;;;;;;;8.35;7.75;;;11.40;71.70;;;;;;5116109;28;20548;-75
2021/10/22 13:46:26;;;;;;;9.48;8.68;;;11.40;71.90;;;;;;5114607;28;20402;-75
2021/10/22 13:48:59;;;;;;;8.95;8.25;;;11.40;71.60;;;;;;5114787;28;20047;-75